メインページ
METAR-TAF:

METAR-TAF

空港 :

香港, 中華人民共和国

香港国際空港

緯度: 22-19N, 経度: 113-55E, 海抜: 9m

現時点の気象観測

当レポートは6分前の13:00(UTC)に作成
北東の風 3kt、からの間で変化する
気温 17°C
湿度 63%
気圧 1023 hPa
視程10km以上
高度4000ftの雲はほとんどない

METAR: VHHH 241300Z 05003KT 360V090 9999 FEW040 17/10 Q1023 NOSIG

時間: 21:06 (13:06 UTC)

予報

当レポートは2時間6分前の11:00(UTC)に作成
予報は24日の 12時(UTC)から 25日の 18時(UTC)まで有効
北/北東の風 10kt
視程: 9000m
高度2500ftの雲はほとんどない
高度4000ftの雲は散在している

TAF: VHHH 241100Z 2412/2518 02010KT 9000 FEW025 SCT040 TX18/2506Z TN16/2423Z

4,000以上の空港の気象観測と天気予報(METAR報とTAF報)

利用可能な観測所は地図上に黄色い丸と赤い丸で示す。

丸の上にカーソルを重ねると観測所名を参照できる。

次にクリックすると気象観測と天気予報を参照できる。

マップの切り替え:黒色「×」印の緑ボタンをクリックして拡大、「-」印の緑ボタンをクリックして縮小、緑色の三角印をクリックして隣りの地図に切り替え


METAR-TAF: